Time;durP1;ratioP1;P1;durP2;ratioP2;P2;SDS_P1;SDS_P2;PMS_P1;PMS_P2;Temp;Humidity;BMP_temperature;BMP_pressure;BME280_temperature;BME280_humidity;BME280_pressure;Samples;Min_cycle;Max_cycle;Signal;HPM_P1;HPM_P2
2022/07/09 00:02:26;;;;;;;5.90;3.53;;;17.70;87.60;;;;;;5073532;28;20566;-55
2022/07/09 00:04:53;;;;;;;7.47;3.67;;;17.70;86.60;;;;;;5073209;28;20535;-56
2022/07/09 00:07:22;;;;;;;6.90;3.87;;;17.50;87.10;;;;;;5073367;28;20463;-55
2022/07/09 00:09:49;;;;;;;7.43;4.03;;;17.20;87.70;;;;;;5073596;28;20551;-55
2022/07/09 00:12:16;;;;;;;7.40;4.23;;;17.10;88.50;;;;;;5073203;28;20483;-56
2022/07/09 00:14:44;;;;;;;7.80;4.57;;;17.20;88.90;;;;;;5073185;28;20450;-56
2022/07/09 00:17:11;;;;;;;5.33;4.83;;;17.00;89.20;;;;;;5073341;28;20546;-56
2022/07/09 00:19:38;;;;;;;5.03;4.10;;;17.00;90.10;;;;;;5072913;28;20994;-56
2022/07/09 00:22:06;;;;;;;4.10;3.70;;;17.00;90.40;;;;;;5073099;28;20539;-56
2022/07/09 00:24:35;;;;;;;4.40;4.00;;;17.10;90.40;;;;;;5073182;28;20548;-55
2022/07/09 00:27:02;;;;;;;5.13;4.53;;;17.20;90.70;;;;;;5072922;28;20538;-55
2022/07/09 00:29:29;;;;;;;7.43;4.27;;;17.30;90.50;;;;;;5073238;28;20963;-56
2022/07/09 00:31:56;;;;;;;7.00;4.13;;;17.20;90.60;;;;;;5073149;28;20630;-56
2022/07/09 00:34:24;;;;;;;5.63;4.40;;;17.20;90.50;;;;;;5072928;28;20803;-57
2022/07/09 00:36:51;;;;;;;5.73;4.70;;;17.20;91.10;;;;;;5073245;28;20477;-55
2022/07/09 00:39:18;;;;;;;7.50;5.53;;;17.20;90.80;;;;;;5072932;28;20516;-56
2022/07/09 00:41:47;;;;;;;10.70;6.80;;;17.10;90.90;;;;;;5073262;28;20544;-56
2022/07/09 00:44:14;;;;;;;5.97;5.03;;;16.90;91.30;;;;;;5073222;28;20451;-55
2022/07/09 00:46:41;;;;;;;14.00;12.40;;;16.90;91.50;;;;;;5073178;28;20480;-55
2022/07/09 00:49:08;;;;;;;11.17;6.03;;;16.80;91.70;;;;;;5073435;28;20448;-55
2022/07/09 00:51:35;;;;;;;5.23;4.10;;;16.80;92.20;;;;;;5073065;28;20531;-55
2022/07/09 00:54:03;;;;;;;6.87;4.50;;;16.90;92.00;;;;;;5073113;28;20456;-56
2022/07/09 00:56:31;;;;;;;4.93;4.23;;;16.90;92.40;;;;;;5073118;28;20448;-56
2022/07/09 00:59:00;;;;;;;7.47;5.70;;;16.90;92.50;;;;;;5073413;28;20523;-55
2022/07/09 01:01:28;;;;;;;8.20;4.27;;;16.80;92.60;;;;;;5076937;28;20537;-56
2022/07/09 01:03:56;;;;;;;6.57;4.23;;;16.80;92.90;;;;;;5077087;28;20488;-56
2022/07/09 01:06:23;;;;;;;7.33;5.10;;;16.70;93.10;;;;;;5077010;28;20483;-55
2022/07/09 01:08:50;;;;;;;6.10;4.07;;;16.60;93.30;;;;;;5076880;28;20448;-55
2022/07/09 01:11:17;;;;;;;7.13;4.00;;;16.60;93.60;;;;;;5076615;28;20547;-55
2022/07/09 01:13:45;;;;;;;4.43;4.00;;;16.60;93.90;;;;;;5076833;28;20842;-55
2022/07/09 01:16:16;;;;;;;8.13;4.00;;;16.60;94.20;;;;;;5076746;28;20540;-55
2022/07/09 01:18:45;;;;;;;10.33;4.20;;;16.50;94.30;;;;;;5076475;28;20927;-55
2022/07/09 01:21:14;;;;;;;5.97;4.73;;;16.50;94.60;;;;;;5076599;28;20506;-55
2022/07/09 01:23:41;;;;;;;12.17;5.33;;;16.40;94.70;;;;;;5076554;28;20447;-55
2022/07/09 01:26:09;;;;;;;5.10;4.63;;;16.30;95.00;;;;;;5076535;28;20870;-55
2022/07/09 01:28:36;;;;;;;12.40;4.60;;;16.20;95.20;;;;;;5076340;28;20488;-55
2022/07/09 01:31:04;;;;;;;6.63;4.40;;;16.20;95.50;;;;;;5076051;28;20496;-55
2022/07/09 01:33:31;;;;;;;5.83;3.87;;;16.30;96.10;;;;;;5076076;28;20451;-55
2022/07/09 01:35:59;;;;;;;7.43;4.10;;;16.50;95.50;;;;;;5076557;28;20513;-55
2022/07/09 01:38:27;;;;;;;5.70;4.43;;;16.70;95.50;;;;;;5075975;28;20834;-55
2022/07/09 01:40:54;;;;;;;5.20;4.33;;;16.80;94.80;;;;;;5076065;28;20570;-55
2022/07/09 01:43:22;;;;;;;3.70;3.40;;;16.80;94.80;;;;;;5076375;28;20452;-55
2022/07/09 01:45:49;;;;;;;4.50;4.10;;;16.90;94.50;;;;;;5075784;28;20531;-55
2022/07/09 01:48:16;;;;;;;5.73;4.33;;;16.80;94.90;;;;;;5076150;28;20570;-55
2022/07/09 01:50:43;;;;;;;8.30;3.90;;;16.70;95.10;;;;;;5076201;28;20786;-55
2022/07/09 01:53:11;;;;;;;8.30;4.80;;;16.50;95.70;;;;;;5075689;28;20543;-55
2022/07/09 01:55:39;;;;;;;4.90;3.87;;;16.40;96.20;;;;;;5076008;28;20456;-55
2022/07/09 01:58:07;;;;;;;5.13;4.10;;;16.40;96.00;;;;;;5076111;28;20476;-55
2022/07/09 02:00:34;;;;;;;6.53;5.03;;;16.20;96.50;;;;;;5075807;28;20480;-55
2022/07/09 02:03:01;;;;;;;4.53;4.13;;;16.00;96.80;;;;;;5075898;28;20547;-55
2022/07/09 02:05:29;;;;;;;5.63;4.87;;;15.90;97.10;;;;;;5075953;28;20456;-55
2022/07/09 02:07:56;;;;;;;7.67;4.40;;;16.00;97.50;;;;;;5075922;28;20452;-55
2022/07/09 02:10:23;;;;;;;5.77;4.57;;;16.20;97.60;;;;;;5075233;28;20471;-55
2022/07/09 02:12:52;;;;;;;5.03;4.63;;;16.30;97.40;;;;;;5075498;28;20926;-55
2022/07/09 02:15:19;;;;;;;7.40;4.90;;;16.20;97.20;;;;;;5075747;28;20987;-55
2022/07/09 02:17:46;;;;;;;5.00;4.50;;;16.20;97.50;;;;;;5075704;28;20579;-55
2022/07/09 02:20:13;;;;;;;4.97;4.57;;;16.00;97.80;;;;;;5075445;28;20491;-55
2022/07/09 02:22:40;;;;;;;5.90;4.80;;;16.00;98.10;;;;;;5075671;28;20482;-55
2022/07/09 02:25:09;;;;;;;6.63;4.80;;;16.00;98.40;;;;;;5075256;28;20459;-55
2022/07/09 02:27:36;;;;;;;6.90;4.50;;;16.20;98.00;;;;;;5075475;28;20527;-55
2022/07/09 02:30:06;;;;;;;5.37;4.40;;;16.20;97.70;;;;;;5075136;28;21046;-55
2022/07/09 02:32:33;;;;;;;4.10;3.70;;;16.20;97.70;;;;;;5075369;28;20543;-54
2022/07/09 02:35:00;;;;;;;5.40;4.83;;;16.00;98.20;;;;;;5074922;28;20491;-55
2022/07/09 02:37:27;;;;;;;4.17;3.77;;;15.90;98.50;;;;;;5075175;28;20563;-55
2022/07/09 02:39:54;;;;;;;6.00;4.50;;;16.00;98.60;;;;;;5075080;28;20469;-55
2022/07/09 02:42:22;;;;;;;8.33;3.87;;;16.00;98.60;;;;;;5075114;28;20531;-55
2022/07/09 02:44:49;;;;;;;4.17;3.80;;;16.10;98.50;;;;;;5075217;28;20488;-55
2022/07/09 02:47:17;;;;;;;5.27;4.30;;;16.20;98.30;;;;;;5074873;28;20433;-55
2022/07/09 02:49:45;;;;;;;4.27;3.53;;;16.20;97.80;;;;;;5074764;28;20449;-55
2022/07/09 02:52:12;;;;;;;3.80;3.33;;;16.00;98.50;;;;;;5075058;28;20444;-55
2022/07/09 02:54:39;;;;;;;5.10;3.90;;;16.10;98.60;;;;;;5074616;28;20965;-59
2022/07/09 02:57:08;;;;;;;7.23;4.27;;;16.10;98.40;;;;;;5074480;28;20502;-55
2022/07/09 02:59:35;;;;;;;5.13;4.03;;;16.10;98.20;;;;;;5074856;28;20472;-55
2022/07/09 03:02:02;;;;;;;9.10;4.67;;;16.00;98.30;;;;;;5074525;28;20480;-55
2022/07/09 03:04:31;;;;;;;15.87;5.50;;;16.00;98.20;;;;;;5074703;28;20847;-54
2022/07/09 03:06:58;;;;;;;4.93;4.03;;;16.00;98.50;;;;;;5074856;28;20475;-55
2022/07/09 03:09:25;;;;;;;3.57;3.00;;;15.90;98.40;;;;;;5074389;28;20476;-55
2022/07/09 03:11:52;;;;;;;5.07;4.00;;;15.90;98.70;;;;;;5074564;28;20448;-55
2022/07/09 03:14:20;;;;;;;7.00;4.63;;;15.90;98.80;;;;;;5074155;28;21022;-55
2022/07/09 03:16:47;;;;;;;4.87;3.87;;;16.00;99.10;;;;;;5074566;28;20444;-55
2022/07/09 03:19:14;;;;;;;4.17;3.77;;;15.70;99.10;;;;;;5074029;28;20539;-54
2022/07/09 03:21:42;;;;;;;5.67;3.80;;;15.60;99.60;;;;;;5073155;28;20519;-55
2022/07/09 03:24:10;;;;;;;4.80;4.30;;;15.60;99.90;;;;;;5074077;28;20873;-55
2022/07/09 03:26:37;;;;;;;4.50;4.10;;;15.50;99.90;;;;;;5073860;28;20480;-54
2022/07/09 03:29:04;;;;;;;5.17;4.13;;;15.50;99.90;;;;;;5073773;28;21007;-55
2022/07/09 03:31:31;;;;;;;22.63;6.40;;;15.50;99.90;;;;;;5074329;28;20475;-55
2022/07/09 03:33:58;;;;;;;5.33;4.17;;;15.50;99.90;;;;;;5073843;28;20448;-55
2022/07/09 03:36:25;;;;;;;8.60;4.20;;;15.50;99.90;;;;;;5074209;28;20486;-55
2022/07/09 03:38:54;;;;;;;6.70;4.40;;;15.70;99.90;;;;;;5072695;28;20486;-55
2022/07/09 03:41:21;;;;;;;4.77;4.27;;;15.80;99.90;;;;;;5073839;28;20488;-54
2022/07/09 03:43:48;;;;;;;6.93;4.63;;;15.90;99.90;;;;;;5073943;28;20483;-55
2022/07/09 03:46:15;;;;;;;5.07;4.00;;;16.00;99.90;;;;;;5073772;28;20539;-55
2022/07/09 03:48:42;;;;;;;5.60;4.30;;;16.00;99.90;;;;;;5073837;28;20483;-55
2022/07/09 03:51:10;;;;;;;6.23;4.33;;;16.00;99.90;;;;;;5073693;28;20470;-55
2022/07/09 03:53:37;;;;;;;13.20;4.97;;;16.00;99.90;;;;;;5073626;28;20821;-55
2022/07/09 03:56:07;;;;;;;7.30;4.73;;;16.10;99.90;;;;;;5073724;28;20455;-55
2022/07/09 03:58:35;;;;;;;5.97;3.80;;;15.90;99.90;;;;;;5073305;28;20480;-55
2022/07/09 04:01:02;;;;;;;8.87;5.20;;;15.70;99.90;;;;;;5073230;28;20487;-55
2022/07/09 04:03:30;;;;;;;5.83;4.07;;;15.60;99.90;;;;;;5073795;28;20519;-55
2022/07/09 04:05:57;;;;;;;5.87;4.20;;;15.70;99.90;;;;;;5073487;28;20922;-55
2022/07/09 04:08:24;;;;;;;4.47;4.07;;;15.80;99.90;;;;;;5073603;28;20535;-55
2022/07/09 04:10:51;;;;;;;4.87;4.43;;;15.90;99.90;;;;;;5073252;28;20547;-55
2022/07/09 04:13:20;;;;;;;4.93;4.43;;;15.90;99.90;;;;;;5073477;28;20454;-55
2022/07/09 04:15:47;;;;;;;7.10;5.27;;;15.70;99.90;;;;;;5073224;28;20495;-55
2022/07/09 04:18:15;;;;;;;4.73;4.33;;;15.70;99.90;;;;;;5073600;28;20458;-55
2022/07/09 04:20:43;;;;;;;4.30;3.90;;;15.60;99.90;;;;;;5072957;28;20813;-55
2022/07/09 04:23:10;;;;;;;5.10;4.70;;;15.70;99.90;;;;;;5073085;28;20448;-55
2022/07/09 04:25:38;;;;;;;4.67;4.27;;;15.80;99.90;;;;;;5073491;28;20483;-55
2022/07/09 04:28:06;;;;;;;9.70;4.37;;;15.90;99.90;;;;;;5072989;28;20547;-55
2022/07/09 04:30:34;;;;;;;4.60;4.20;;;16.00;99.90;;;;;;5073265;28;20464;-55
2022/07/09 04:33:02;;;;;;;5.90;4.60;;;16.00;99.90;;;;;;5073236;28;20459;-55
2022/07/09 04:35:29;;;;;;;4.97;4.50;;;16.10;99.90;;;;;;5073263;28;20558;-55
2022/07/09 04:37:56;;;;;;;10.90;5.00;;;16.10;99.90;;;;;;5072829;28;20464;-55
2022/07/09 04:40:23;;;;;;;4.53;4.23;;;16.00;99.90;;;;;;5073272;28;20462;-55
2022/07/09 04:42:50;;;;;;;6.47;4.30;;;16.00;99.90;;;;;;5073355;28;20480;-55
2022/07/09 04:45:18;;;;;;;7.33;4.40;;;16.00;99.90;;;;;;5073101;28;20449;-55
2022/07/09 04:47:46;;;;;;;9.73;4.40;;;15.90;99.90;;;;;;5073259;28;20448;-55
2022/07/09 04:50:13;;;;;;;10.03;4.60;;;15.80;99.90;;;;;;5073158;28;20559;-55
2022/07/09 04:52:41;;;;;;;5.77;5.10;;;15.90;99.90;;;;;;5072705;28;20445;-55
2022/07/09 04:55:10;;;;;;;5.67;5.10;;;16.00;99.90;;;;;;5072963;28;20449;-55
2022/07/09 04:57:37;;;;;;;6.77;4.80;;;15.90;99.90;;;;;;5072793;28;20452;-55
2022/07/09 05:00:06;;;;;;;4.80;4.30;;;16.00;99.90;;;;;;5072997;28;20807;-55
2022/07/09 05:02:33;;;;;;;5.53;5.00;;;16.00;99.90;;;;;;5072603;28;20506;-55
2022/07/09 05:05:03;;;;;;;8.10;4.80;;;16.00;99.90;;;;;;5072785;28;20555;-55
2022/07/09 05:07:30;;;;;;;7.73;5.03;;;15.90;99.90;;;;;;5072987;28;20441;-55
2022/07/09 05:09:57;;;;;;;5.63;4.60;;;16.00;99.90;;;;;;5072956;28;20506;-55
2022/07/09 05:12:25;;;;;;;5.23;4.73;;;16.00;99.90;;;;;;5073000;28;20473;-55
2022/07/09 05:14:52;;;;;;;5.83;4.20;;;16.20;99.90;;;;;;5072665;28;20456;-55
2022/07/09 05:17:19;;;;;;;5.63;4.57;;;16.40;99.90;;;;;;5072522;28;20484;-55
2022/07/09 05:19:46;;;;;;;13.73;5.47;;;16.50;99.90;;;;;;5072682;28;20449;-55
2022/07/09 05:22:15;;;;;;;10.10;4.63;;;16.50;99.90;;;;;;5072405;28;21073;-55
2022/07/09 05:24:42;;;;;;;5.67;5.17;;;16.50;99.90;;;;;;5072757;28;20523;-55
2022/07/09 05:27:09;;;;;;;4.93;4.43;;;16.60;99.90;;;;;;5072453;28;20498;-55
2022/07/09 05:29:37;;;;;;;9.40;5.03;;;16.50;99.90;;;;;;5072994;28;20464;-55
2022/07/09 05:32:05;;;;;;;8.83;5.80;;;16.50;99.90;;;;;;5072423;28;20946;-55
2022/07/09 05:34:32;;;;;;;9.90;4.90;;;16.50;99.90;;;;;;5072664;28;20444;-53
2022/07/09 05:36:59;;;;;;;6.37;4.40;;;16.60;99.90;;;;;;5072731;28;20464;-54
2022/07/09 05:39:28;;;;;;;5.30;4.57;;;16.70;99.90;;;;;;5072314;28;20564;-54
2022/07/09 05:41:55;;;;;;;5.67;3.67;;;16.70;99.90;;;;;;5072194;28;20563;-55
2022/07/09 05:44:22;;;;;;;5.03;4.53;;;16.80;99.90;;;;;;5072477;28;20428;-54
2022/07/09 05:46:54;;;;;;;9.37;4.60;;;17.00;99.90;;;;;;5075885;28;20451;-54
2022/07/09 05:49:21;;;;;;;6.17;4.60;;;17.00;99.50;;;;;;5076069;28;20480;-54
2022/07/09 05:51:48;;;;;;;6.10;5.10;;;17.00;99.20;;;;;;5076288;28;20444;-54
2022/07/09 05:54:15;;;;;;;6.93;4.50;;;17.10;99.90;;;;;;5076084;28;20484;-54
2022/07/09 05:56:44;;;;;;;6.73;4.90;;;17.20;99.90;;;;;;5075794;28;20432;-54
2022/07/09 05:59:12;;;;;;;4.83;4.37;;;17.30;99.70;;;;;;5075991;28;20543;-54
2022/07/09 06:01:41;;;;;;;5.20;4.23;;;17.30;99.90;;;;;;5075871;28;21009;-54
2022/07/09 06:04:09;;;;;;;5.10;4.37;;;17.40;99.90;;;;;;5075881;28;20448;-54
2022/07/09 06:06:36;;;;;;;7.43;5.30;;;17.40;99.50;;;;;;5076166;28;20511;-54
2022/07/09 06:09:03;;;;;;;9.83;4.80;;;17.30;99.00;;;;;;5075646;28;20531;-54
2022/07/09 06:11:30;;;;;;;11.83;5.93;;;17.40;99.90;;;;;;5075764;28;20455;-54
2022/07/09 06:13:59;;;;;;;8.47;4.50;;;17.30;99.20;;;;;;5075721;28;20490;-54
2022/07/09 06:16:26;;;;;;;6.13;4.50;;;17.40;99.80;;;;;;5075567;28;20483;-54
2022/07/09 06:18:53;;;;;;;6.37;5.23;;;17.60;99.90;;;;;;5075277;28;20535;-54
2022/07/09 06:21:20;;;;;;;5.63;4.10;;;17.70;99.40;;;;;;5075314;28;20473;-54
2022/07/09 06:23:48;;;;;;;8.43;4.30;;;17.80;99.50;;;;;;5075814;28;20578;-54
2022/07/09 06:26:15;;;;;;;7.27;4.00;;;17.90;98.50;;;;;;5075410;28;20444;-54
2022/07/09 06:28:42;;;;;;;3.70;3.40;;;18.00;97.70;;;;;;5075308;28;20455;-54
2022/07/09 06:31:11;;;;;;;5.70;3.97;;;18.00;96.90;;;;;;5074998;28;20461;-54
2022/07/09 06:33:38;;;;;;;5.00;3.27;;;18.10;96.80;;;;;;5075260;28;20535;-54
2022/07/09 06:36:06;;;;;;;4.70;3.50;;;18.10;95.90;;;;;;5075240;28;20480;-54
2022/07/09 06:39:44;;;;;;;7.63;3.77;;;18.20;96.00;;;;;;5074797;28;20547;-54
2022/07/09 06:41:20;;;;;;;4.73;3.77;;;18.30;95.90;;;;;;5074702;28;20480;-54
2022/07/09 06:43:47;;;;;;;8.67;4.50;;;18.60;96.00;;;;;;5075124;28;20563;-54
2022/07/09 06:46:16;;;;;;;5.43;3.67;;;18.80;97.20;;;;;;5075108;28;20536;-54
2022/07/09 06:48:43;;;;;;;4.80;4.07;;;18.80;95.60;;;;;;5075175;28;20449;-54
2022/07/09 06:51:10;;;;;;;9.17;4.10;;;18.80;95.50;;;;;;5074671;28;20548;-54
2022/07/09 06:53:38;;;;;;;10.60;4.17;;;18.90;95.40;;;;;;5074718;28;20444;-54
2022/07/09 06:56:06;;;;;;;5.30;3.60;;;18.90;95.50;;;;;;5074653;28;20452;-54
2022/07/09 06:58:33;;;;;;;7.63;4.37;;;18.90;94.70;;;;;;5074484;28;20459;-54
2022/07/09 07:01:00;;;;;;;4.33;4.00;;;19.10;94.70;;;;;;5074535;28;20468;-54
2022/07/09 07:03:29;;;;;;;6.43;4.10;;;19.30;95.40;;;;;;5074650;28;20980;-54
2022/07/09 07:05:56;;;;;;;5.00;3.83;;;;;;;;;;5074741;28;20462;-49
2022/07/09 07:08:23;;;;;;;4.60;3.30;;;19.60;95.30;;;;;;5074210;28;20956;-53
2022/07/09 07:10:50;;;;;;;8.87;3.10;;;20.00;95.50;;;;;;5074441;28;20826;-54
2022/07/09 07:13:17;;;;;;;4.30;3.73;;;21.40;93.40;;;;;;5074571;28;20447;-52
2022/07/09 07:15:48;;;;;;;4.63;3.70;;;21.90;92.70;;;;;;5074401;28;20448;-56
2022/07/09 07:18:16;;;;;;;6.43;4.47;;;21.80;91.90;;;;;;5074115;28;20900;-54
2022/07/09 07:20:45;;;;;;;6.23;3.13;;;22.20;91.80;;;;;;5074102;28;20464;-55
2022/07/09 07:23:12;;;;;;;4.23;3.23;;;23.10;90.30;;;;;;5074059;28;20507;-55
2022/07/09 07:25:39;;;;;;;7.77;3.50;;;23.40;90.50;;;;;;5073876;28;20445;-55
2022/07/09 07:28:06;;;;;;;5.10;3.87;;;23.40;89.40;;;;;;5073933;28;20485;-55
2022/07/09 07:30:35;;;;;;;5.10;3.03;;;23.50;86.00;;;;;;5073721;28;20551;-54
2022/07/09 07:33:02;;;;;;;4.73;3.60;;;23.90;85.60;;;;;;5073876;28;20445;-55
2022/07/09 07:35:29;;;;;;;8.87;3.77;;;23.50;83.70;;;;;;5073932;28;20460;-54
2022/07/09 07:37:58;;;;;;;5.23;3.07;;;23.90;83.90;;;;;;5069837;28;20488;-53
2022/07/09 07:40:25;;;;;;;7.43;3.53;;;24.40;80.50;;;;;;5053081;28;20481;-53
2022/07/09 07:42:53;;;;;;;6.67;3.63;;;23.60;82.80;;;;;;5064109;28;20480;-56
2022/07/09 07:45:20;;;;;;;4.30;3.23;;;24.40;83.40;;;;;;5072294;28;20490;-58
2022/07/09 07:47:47;;;;;;;4.43;3.60;;;25.80;81.80;;;;;;5067819;28;20467;-56
2022/07/09 07:50:17;;;;;;;6.50;3.03;;;25.90;78.90;;;;;;5073644;28;20495;-54
2022/07/09 07:52:45;;;;;;;9.27;3.30;;;26.20;77.80;;;;;;5073545;28;20476;-56
2022/07/09 07:55:15;;;;;;;3.23;2.60;;;26.10;76.20;;;;;;5072753;28;20498;-53
2022/07/09 07:57:43;;;;;;;4.07;2.90;;;26.60;75.40;;;;;;5069639;28;20441;-57
2022/07/09 08:00:11;;;;;;;3.47;2.43;;;27.50;72.90;;;;;;5058727;28;20481;-58
2022/07/09 08:02:38;;;;;;;5.90;3.10;;;27.60;71.80;;;;;;5067146;28;20830;-58
2022/07/09 08:05:06;;;;;;;6.17;2.80;;;26.90;72.40;;;;;;5072284;28;20464;-56
2022/07/09 08:07:34;;;;;;;6.10;3.37;;;26.60;71.90;;;;;;5072059;28;20460;-55
2022/07/09 08:10:01;;;;;;;6.43;3.40;;;26.40;73.10;;;;;;5063220;28;20575;-56
2022/07/09 08:12:29;;;;;;;4.67;3.10;;;26.80;74.30;;;;;;5063596;28;20503;-54
2022/07/09 08:14:57;;;;;;;6.47;3.30;;;27.20;73.40;;;;;;5064136;28;20445;-60
2022/07/09 08:17:24;;;;;;;3.13;2.70;;;27.50;72.90;;;;;;5064768;28;20539;-58
2022/07/09 08:19:54;;;;;;;4.00;3.70;;;27.10;70.00;;;;;;5061750;28;21072;-59
2022/07/09 08:22:31;;;;;;;3.57;2.80;;;26.20;71.90;;;;;;5061781;28;20511;-59
2022/07/09 08:25:01;;;;;;;4.33;2.77;;;26.50;73.80;;;;;;5063758;28;20442;-54
2022/07/09 08:27:30;;;;;;;5.33;2.90;;;26.20;71.10;;;;;;5059868;28;20808;-54
2022/07/09 08:29:57;;;;;;;3.80;2.60;;;25.90;70.80;;;;;;5064909;28;20564;-54
2022/07/09 08:32:24;;;;;;;4.40;2.43;;;26.80;72.20;;;;;;5062644;28;20451;-53
2022/07/09 08:35:00;;;;;;;3.90;2.20;;;26.80;69.20;;;;;;5065869;28;20898;-54
2022/07/09 08:37:27;;;;;;;2.87;2.30;;;26.60;69.60;;;;;;5062225;28;20475;-57
2022/07/09 08:39:54;;;;;;;5.30;2.83;;;27.30;70.20;;;;;;5061344;28;20985;-57
2022/07/09 08:42:22;;;;;;;6.30;2.30;;;28.30;69.00;;;;;;5061719;28;21047;-55
2022/07/09 08:44:51;;;;;;;2.70;2.20;;;28.50;69.10;;;;;;5062322;28;20528;-52
2022/07/09 08:47:18;;;;;;;2.73;2.40;;;28.80;68.00;;;;;;5061155;28;20445;-55
2022/07/09 08:49:49;;;;;;;2.60;2.00;;;29.00;68.10;;;;;;5059220;28;20476;-59
2022/07/09 08:52:17;;;;;;;2.70;2.17;;;28.80;66.30;;;;;;5062782;28;20442;-56
2022/07/09 08:54:46;;;;;;;5.10;2.33;;;27.90;67.00;;;;;;5059581;28;20551;-57
2022/07/09 08:57:13;;;;;;;2.87;2.60;;;28.10;66.90;;;;;;5059055;28;20456;-58
2022/07/09 08:59:40;;;;;;;3.30;2.23;;;27.80;67.10;;;;;;5065037;28;20988;-61
2022/07/09 09:02:13;;;;;;;5.73;2.30;;;28.20;69.10;;;;;;5054395;28;20556;-59
2022/07/09 09:04:41;;;;;;;3.77;2.53;;;29.10;66.40;;;;;;5066173;28;20442;-62
2022/07/09 09:07:16;;;;;;;4.33;2.13;;;29.10;66.10;;;;;;5056796;28;20432;-57
2022/07/09 09:09:43;;;;;;;4.70;2.20;;;27.90;64.80;;;;;;5056712;28;21328;-57
2022/07/09 09:12:10;;;;;;;4.07;3.10;;;28.20;67.80;;;;;;5067712;28;20440;-59
2022/07/09 09:14:38;;;;;;;3.50;2.17;;;29.60;67.50;;;;;;5052495;28;20448;-55
2022/07/09 09:17:06;;;;;;;3.27;2.27;;;29.80;62.80;;;;;;5059846;28;20551;-59
2022/07/09 09:19:34;;;;;;;5.13;2.77;;;29.60;64.00;;;;;;5059461;28;20483;-58
2022/07/09 09:22:02;;;;;;;2.83;2.60;;;29.30;62.70;;;;;;5060933;28;20951;-60
2022/07/09 09:24:30;;;;;;;6.30;2.87;;;28.70;65.50;;;;;;5058011;28;20437;-59
2022/07/09 09:27:00;;;;;;;2.40;2.20;;;28.50;62.70;;;;;;5070155;28;20499;-56
2022/07/09 09:29:27;;;;;;;3.70;2.50;;;28.30;64.70;;;;;;5065321;28;20461;-59
2022/07/09 09:31:55;;;;;;;4.80;2.07;;;29.20;62.30;;;;;;5076635;28;20451;-60
2022/07/09 09:34:23;;;;;;;4.10;2.40;;;28.50;62.50;;;;;;5076527;28;20454;-58
2022/07/09 09:36:54;;;;;;;2.83;2.53;;;27.70;62.50;;;;;;5076653;28;20491;-59
2022/07/09 09:39:23;;;;;;;4.47;3.20;;;28.20;64.40;;;;;;5076237;28;20790;-56
2022/07/09 09:41:52;;;;;;;5.23;2.30;;;27.90;63.30;;;;;;5076425;28;20455;-61
2022/07/09 09:44:21;;;;;;;9.10;2.77;;;27.90;63.10;;;;;;5076386;28;20570;-56
2022/07/09 09:46:48;;;;;;;3.10;2.40;;;27.90;63.10;;;;;;5075904;28;20487;-57
2022/07/09 09:49:16;;;;;;;3.80;2.37;;;28.50;64.00;;;;;;5076063;28;20444;-60
2022/07/09 09:51:55;;;;;;;4.53;2.20;;;29.30;60.90;;;;;;5076282;28;20463;-56
2022/07/09 09:54:23;;;;;;;3.03;2.20;;;29.80;61.10;;;;;;5075868;28;20438;-57
2022/07/09 09:56:51;;;;;;;3.60;2.03;;;30.50;61.20;;;;;;5076017;28;20447;-55
2022/07/09 09:59:18;;;;;;;3.40;2.10;;;30.60;59.80;;;;;;5075990;28;20844;-58
2022/07/09 10:01:47;;;;;;;2.20;2.00;;;29.70;59.40;;;;;;5075793;28;20531;-57
2022/07/09 10:04:16;;;;;;;8.13;2.00;;;29.20;55.80;;;;;;5075659;28;20483;-55
2022/07/09 10:06:43;;;;;;;2.80;1.67;;;30.10;58.50;;;;;;5075667;28;20457;-53
2022/07/09 10:09:15;;;;;;;3.67;2.10;;;30.40;57.20;;;;;;5076138;28;20425;-56
2022/07/09 10:11:43;;;;;;;2.83;1.63;;;29.70;57.70;;;;;;5075905;28;20428;-58
2022/07/09 10:14:16;;;;;;;2.03;1.90;;;28.70;59.60;;;;;;5076752;28;20447;-54
2022/07/09 10:16:44;;;;;;;5.63;2.30;;;28.20;59.00;;;;;;5075221;28;20877;-56
2022/07/09 10:19:11;;;;;;;3.77;2.07;;;27.80;61.20;;;;;;5060320;28;20465;-57
2022/07/09 10:21:40;;;;;;;2.13;1.80;;;28.50;60.10;;;;;;5055298;28;20545;-58
2022/07/09 10:24:09;;;;;;;3.10;1.80;;;29.00;59.60;;;;;;5058125;28;20559;-56
2022/07/09 10:26:46;;;;;;;6.03;2.23;;;28.90;59.40;;;;;;5066492;28;20801;-57
2022/07/09 10:29:25;;;;;;;2.67;2.20;;;29.50;58.20;;;;;;5063793;28;20530;-57
2022/07/09 10:31:53;;;;;;;3.50;1.87;;;30.70;58.10;;;;;;5052607;28;20433;-57
2022/07/09 10:34:54;;;;;;;3.07;2.00;;;30.10;56.60;;;;;;5054421;28;20437;-57
2022/07/09 10:37:32;;;;;;;3.77;1.80;;;29.90;55.80;;;;;;5053391;28;20481;-58
2022/07/09 10:40:10;;;;;;;2.47;1.80;;;30.00;55.00;;;;;;5054602;28;20556;-58
2022/07/09 10:42:39;;;;;;;2.23;1.53;;;29.30;55.10;;;;;;5054386;28;20900;-58
2022/07/09 10:45:26;;;;;;;1.97;1.50;;;29.30;55.80;;;;;;5055095;28;20543;-58
2022/07/09 10:47:55;;;;;;;2.73;1.87;;;28.40;55.70;;;;;;5059733;28;20480;-57
2022/07/09 10:50:22;;;;;;;2.03;1.73;;;28.30;57.20;;;;;;5074709;28;21040;-57
2022/07/09 10:52:50;;;;;;;2.13;1.60;;;27.80;57.80;;;;;;5080906;28;21063;-58
2022/07/09 10:55:18;;;;;;;3.57;2.03;;;27.20;58.30;;;;;;5069650;28;20452;-58
2022/07/09 10:57:48;;;;;;;2.77;1.90;;;26.70;58.00;;;;;;5066653;28;20466;-56
2022/07/09 11:00:16;;;;;;;3.83;1.70;;;26.40;59.80;;;;;;5072702;28;20492;-55
2022/07/09 11:02:54;;;;;;;2.27;1.90;;;26.60;59.90;;;;;;5073118;28;20448;-56
2022/07/09 11:05:22;;;;;;;3.23;2.43;;;27.20;59.90;;;;;;5058699;28;20496;-54
2022/07/09 11:07:56;;;;;;;2.03;1.90;;;28.20;58.60;;;;;;5053662;28;20870;-54
2022/07/09 11:10:24;;;;;;;2.23;2.10;;;28.80;58.10;;;;;;5054157;28;20551;-54
2022/07/09 11:12:53;;;;;;;2.30;2.10;;;28.60;57.50;;;;;;5053953;28;20532;-55
2022/07/09 11:15:21;;;;;;;4.10;1.80;;;28.00;58.30;;;;;;5053896;28;20540;-54
2022/07/09 11:17:56;;;;;;;4.13;2.10;;;27.50;58.40;;;;;;5053920;28;20535;-55
2022/07/09 11:20:23;;;;;;;2.40;2.20;;;27.00;59.40;;;;;;5052791;28;20469;-55
2022/07/09 11:22:51;;;;;;;2.13;1.97;;;26.60;60.80;;;;;;5052643;28;20954;-55
2022/07/09 11:25:18;;;;;;;3.47;1.90;;;26.60;60.20;;;;;;5052765;28;20473;-55
2022/07/09 11:27:46;;;;;;;2.43;2.23;;;27.10;64.40;;;;;;5053578;28;20961;-55
2022/07/09 11:30:18;;;;;;;2.30;2.10;;;27.30;59.80;;;;;;5059674;28;20471;-55
2022/07/09 11:32:45;;;;;;;3.50;2.40;;;27.20;59.60;;;;;;5051837;28;20946;-54
2022/07/09 11:35:13;;;;;;;2.50;2.30;;;26.90;60.00;;;;;;5051723;28;20472;-55
2022/07/09 11:37:46;;;;;;;1.90;1.80;;;26.30;59.80;;;;;;5053086;28;20481;-54
2022/07/09 11:40:18;;;;;;;2.93;2.40;;;26.20;61.40;;;;;;5053553;28;20457;-54
2022/07/09 11:42:46;;;;;;;2.27;2.03;;;26.10;61.80;;;;;;5052958;28;20516;-54
2022/07/09 11:45:13;;;;;;;1.90;1.77;;;25.80;62.10;;;;;;5053924;28;20477;-54
2022/07/09 11:47:42;;;;;;;3.10;1.80;;;25.70;62.70;;;;;;5053968;28;20449;-55
2022/07/09 11:50:11;;;;;;;3.30;1.80;;;25.60;62.90;;;;;;5053084;28;20500;-55
2022/07/09 11:52:45;;;;;;;1.87;1.77;;;25.30;63.40;;;;;;5053339;28;20532;-56
2022/07/09 11:55:15;;;;;;;2.27;2.07;;;25.50;63.80;;;;;;5053149;28;20824;-56
2022/07/09 11:57:52;;;;;;;5.20;3.13;;;25.60;63.50;;;;;;5053129;28;20995;-57
2022/07/09 12:00:23;;;;;;;4.00;1.90;;;25.80;63.60;;;;;;5053694;28;20477;-57
2022/07/09 12:02:52;;;;;;;4.13;2.30;;;;;;;;;;5053813;28;20430;-54
2022/07/09 12:05:27;;;;;;;3.70;1.93;;;27.20;62.00;;;;;;5053493;28;20477;-54
2022/07/09 12:07:54;;;;;;;2.87;2.10;;;28.40;63.70;;;;;;5053529;28;20449;-54
2022/07/09 12:10:28;;;;;;;3.10;1.80;;;28.30;59.50;;;;;;5053189;28;20465;-55
2022/07/09 12:12:55;;;;;;;3.10;1.77;;;28.00;60.40;;;;;;5053703;28;20425;-55
2022/07/09 12:15:23;;;;;;;2.50;1.70;;;27.60;61.40;;;;;;5053202;28;21005;-55
2022/07/09 12:17:55;;;;;;;2.97;1.97;;;27.50;61.90;;;;;;5053406;28;20480;-55
2022/07/09 12:20:23;;;;;;;5.20;2.43;;;27.10;61.20;;;;;;5053553;28;20543;-55
2022/07/09 12:22:51;;;;;;;2.30;2.10;;;27.00;61.70;;;;;;5053261;28;20797;-55
2022/07/09 12:25:19;;;;;;;2.30;2.10;;;26.80;60.90;;;;;;5052926;28;20487;-56
2022/07/09 12:27:46;;;;;;;2.10;1.90;;;26.70;62.20;;;;;;5053046;28;20444;-55
2022/07/09 12:30:14;;;;;;;1.90;1.80;;;26.80;64.10;;;;;;5052879;28;20473;-55
2022/07/09 12:32:42;;;;;;;2.83;2.00;;;27.10;62.40;;;;;;5052660;28;20506;-55
2022/07/09 12:35:11;;;;;;;4.80;2.20;;;27.90;60.50;;;;;;5052736;28;20964;-55
2022/07/09 12:37:40;;;;;;;2.30;2.10;;;28.00;61.70;;;;;;5052639;28;20481;-55
2022/07/09 12:40:09;;;;;;;2.93;2.33;;;27.70;61.40;;;;;;5052553;28;20497;-55
2022/07/09 12:42:37;;;;;;;3.27;1.87;;;27.70;61.30;;;;;;5053102;28;20449;-55
2022/07/09 12:45:05;;;;;;;2.70;1.70;;;27.50;61.40;;;;;;5052794;28;20572;-55
2022/07/09 12:47:32;;;;;;;1.83;1.73;;;27.50;61.80;;;;;;5053010;28;20495;-56
2022/07/09 12:50:00;;;;;;;2.23;2.00;;;28.30;59.80;;;;;;5052553;28;20473;-55
2022/07/09 12:52:29;;;;;;;5.30;2.70;;;28.30;59.90;;;;;;5052883;28;20851;-56
2022/07/09 12:54:56;;;;;;;3.53;2.13;;;28.40;58.90;;;;;;5054782;28;20464;-56